Auburn, Illinois
Current Conditions -  °F | °C
As of 11:52 PM on Thursday 30 Oct 2014 (Local Time) from KSPI Reporting Station
Overcast Overcast  
Wind Chill: 45°   Ceiling: 9000
Heat Index: 47°   Visibility: 10mi
Dew Point: 43°   Wind: 5mph
Humidity: 86%   Direction: 350°N
Pressure: 30.08"   Gusts: NA
Location:  39.59°N, 89.75°W
Report Text: KSPI 310452Z AUTO 35004KT 10SM OVC090 08/06 A3008 RMK AO2 SLP187 T00830061
Loading
Personal Weather Stations






























Interactive Weather Map
Tropical Storm Tracking
New forecast layout! Learn more

10-Day Weather Forecast

Advertisements
Track Severe Weather on mobile